createdAt,value
2019-05-05T00:01:00.903Z,0.40
2019-05-05T00:03:39.666Z,0.50
2019-05-05T00:06:07.657Z,0.50
2019-05-05T00:08:35.182Z,0.50
2019-05-05T00:11:11.874Z,0.40
2019-05-05T00:13:44.824Z,0.40
2019-05-05T00:16:29.912Z,0.30
2019-05-05T00:18:57.338Z,0.30
2019-05-05T00:21:24.439Z,0.40
2019-05-05T00:23:51.614Z,0.30
2019-05-05T00:26:18.422Z,0.30
2019-05-05T00:28:45.404Z,0.40
2019-05-05T00:31:12.395Z,0.30
2019-05-05T00:33:39.295Z,0.20
2019-05-05T00:36:07.818Z,0.20
2019-05-05T00:38:35.331Z,0.10
2019-05-05T00:41:02.408Z,0.10
2019-05-05T00:43:29.289Z,0.00
2019-05-05T00:46:02.133Z,0.00
2019-05-05T00:48:38.177Z,0.00
2019-05-05T00:51:05.266Z,-0.10
2019-05-05T00:53:51.681Z,-0.20
2019-05-05T00:56:18.518Z,-0.20
2019-05-05T00:58:51.060Z,-0.20
2019-05-05T01:01:46.905Z,-0.20
2019-05-05T01:04:16.714Z,-0.20
2019-05-05T01:06:45.722Z,-0.20
2019-05-05T01:09:17.454Z,-0.20
2019-05-05T01:11:44.642Z,-0.20
2019-05-05T01:14:11.521Z,-0.30
2019-05-05T01:16:38.546Z,-0.30
2019-05-05T01:19:05.581Z,-0.20
2019-05-05T01:21:34.740Z,-0.20
2019-05-05T01:24:01.384Z,-0.30
2019-05-05T01:26:28.281Z,-0.30
2019-05-05T01:28:56.286Z,-0.30
2019-05-05T01:31:25.219Z,-0.30
2019-05-05T01:34:10.287Z,-0.30
2019-05-05T01:36:37.498Z,-0.20
2019-05-05T01:39:30.794Z,-0.30
2019-05-05T01:42:00.481Z,-0.30
2019-05-05T01:44:27.359Z,-0.30
2019-05-05T01:46:55.056Z,-0.30
2019-05-05T01:49:22.100Z,-0.40
2019-05-05T01:51:49.102Z,-0.50
2019-05-05T01:54:15.889Z,-0.50
2019-05-05T01:56:44.537Z,-0.50
2019-05-05T01:59:11.704Z,-0.50
2019-05-05T02:01:38.700Z,-0.50
2019-05-05T02:04:05.743Z,-0.60
2019-05-05T02:06:34.835Z,-0.60
2019-05-05T02:09:01.581Z,-0.60
2019-05-05T02:11:28.626Z,-0.60
2019-05-05T02:13:55.708Z,-0.60
2019-05-05T02:16:22.603Z,-0.60
2019-05-05T02:18:49.608Z,-0.60
2019-05-05T02:21:16.611Z,-0.60
2019-05-05T02:23:45.306Z,-0.60
2019-05-05T02:26:12.406Z,-0.60
2019-05-05T02:28:57.770Z,-0.60
2019-05-05T02:31:37.263Z,-0.60
2019-05-05T02:34:05.458Z,-0.60
2019-05-05T02:36:35.282Z,-0.50
2019-05-05T02:39:01.596Z,-0.50
2019-05-05T02:41:28.578Z,-0.50
2019-05-05T02:43:55.998Z,-0.50
2019-05-05T02:46:37.891Z,-0.50
2019-05-05T02:49:06.070Z,-0.50
2019-05-05T02:51:35.449Z,-0.60
2019-05-05T02:54:04.416Z,-0.60
2019-05-05T02:56:39.670Z,-0.50
2019-05-05T02:59:10.126Z,-0.40
2019-05-05T03:01:41.170Z,-0.20
2019-05-05T03:04:08.747Z,-0.10
2019-05-05T03:06:39.178Z,0.10
2019-05-05T03:09:06.400Z,0.20
2019-05-05T03:11:34.485Z,0.40
2019-05-05T03:14:05.030Z,0.60
2019-05-05T03:16:36.324Z,0.70
2019-05-05T03:19:04.000Z,0.70
2019-05-05T03:21:31.022Z,0.80
2019-05-05T03:23:58.016Z,0.80
2019-05-05T03:26:25.185Z,0.90
2019-05-05T03:28:55.155Z,1.00
2019-05-05T03:31:25.828Z,1.10
2019-05-05T03:33:54.858Z,1.10
2019-05-05T03:36:20.917Z,1.20
2019-05-05T03:38:48.611Z,1.20
2019-05-05T03:41:44.773Z,1.30
2019-05-05T03:44:17.594Z,1.40
2019-05-05T03:46:44.684Z,2.50
2019-05-05T03:49:13.417Z,3.70
2019-05-05T03:51:40.522Z,4.60
2019-05-05T03:54:07.702Z,5.50
2019-05-05T03:56:35.018Z,6.10
2019-05-05T03:59:02.437Z,6.70
2019-05-05T04:04:44.120Z,8.00
2019-05-05T04:07:11.133Z,8.40
2019-05-05T04:09:38.029Z,9.10
2019-05-05T04:12:04.956Z,9.60
2019-05-05T04:14:34.588Z,9.00
2019-05-05T04:17:27.565Z,8.30
2019-05-05T04:19:55.341Z,8.00
2019-05-05T04:22:23.779Z,8.40
2019-05-05T04:24:50.747Z,9.80
2019-05-05T04:27:17.630Z,9.00
2019-05-05T04:29:44.413Z,8.70
2019-05-05T04:32:11.245Z,9.00
2019-05-05T04:34:38.149Z,10.30
2019-05-05T04:37:05.223Z,10.70
2019-05-05T04:39:34.124Z,11.20
2019-05-05T04:42:00.897Z,11.20
2019-05-05T04:44:27.816Z,11.10
2019-05-05T04:46:58.809Z,10.90
2019-05-05T04:49:35.757Z,11.00
2019-05-05T04:52:06.332Z,10.70
2019-05-05T04:54:43.904Z,10.40
2019-05-05T04:57:10.822Z,10.10
2019-05-05T04:59:37.610Z,10.20
2019-05-05T05:02:14.419Z,10.20
2019-05-05T05:04:53.537Z,10.60
2019-05-05T05:07:20.970Z,10.80
2019-05-05T05:09:47.870Z,11.10
2019-05-05T05:12:14.745Z,10.90
2019-05-05T05:14:41.582Z,10.80
2019-05-05T05:17:14.085Z,10.80
2019-05-05T05:19:40.987Z,10.70
2019-05-05T05:22:07.901Z,10.80
2019-05-05T05:24:34.754Z,10.90
2019-05-05T05:27:01.537Z,11.00
2019-05-05T05:29:28.318Z,10.90
2019-05-05T05:31:55.152Z,11.00
2019-05-05T05:34:23.883Z,11.10
2019-05-05T05:36:51.081Z,11.40
2019-05-05T05:39:29.815Z,11.40
2019-05-05T05:41:56.624Z,11.30
2019-05-05T05:45:01.179Z,11.30
2019-05-05T05:47:46.576Z,11.10
2019-05-05T05:50:35.350Z,11.30
2019-05-05T05:53:02.228Z,11.40
2019-05-05T05:55:29.005Z,11.50
2019-05-05T05:57:55.814Z,11.70
2019-05-05T06:00:23.772Z,11.90
2019-05-05T06:02:50.810Z,11.50
2019-05-05T06:05:17.805Z,11.60
2019-05-05T06:07:44.603Z,11.60
2019-05-05T06:10:23.722Z,11.70
2019-05-05T06:12:40.316Z,11.50
2019-05-05T06:15:07.306Z,11.10
2019-05-05T06:17:34.428Z,10.80
2019-05-05T06:20:01.518Z,10.70
2019-05-05T06:22:31.395Z,10.60
2019-05-05T06:24:57.113Z,10.60
2019-05-05T06:27:23.922Z,10.50
2019-05-05T06:29:50.855Z,10.30
2019-05-05T06:32:17.629Z,10.30
2019-05-05T06:34:44.475Z,10.30
2019-05-05T06:37:11.449Z,10.40
2019-05-05T06:39:38.244Z,10.60
2019-05-05T06:42:27.551Z,10.60
2019-05-05T06:45:01.511Z,10.70
2019-05-05T06:47:38.402Z,10.80
2019-05-05T06:50:05.688Z,10.80
2019-05-05T06:52:43.789Z,11.00
2019-05-05T06:55:03.630Z,11.10
2019-05-05T06:57:30.193Z,10.90
2019-05-05T06:59:56.992Z,10.90
2019-05-05T07:02:23.920Z,11.00
2019-05-05T07:04:50.818Z,11.00
2019-05-05T07:07:17.613Z,11.10
2019-05-05T07:09:44.474Z,11.20
2019-05-05T07:12:13.639Z,11.10
2019-05-05T07:14:40.129Z,11.10
2019-05-05T07:17:06.960Z,11.30
2019-05-05T07:19:34.442Z,11.50
2019-05-05T07:22:01.424Z,11.50
2019-05-05T07:24:28.251Z,11.70
2019-05-05T07:26:55.139Z,11.60
2019-05-05T07:29:23.745Z,11.40
2019-05-05T07:31:50.790Z,11.50
2019-05-05T07:34:18.872Z,11.40
2019-05-05T07:36:47.140Z,11.30
2019-05-05T07:39:14.415Z,11.50
2019-05-05T07:41:41.707Z,11.50
2019-05-05T07:44:22.272Z,11.60
2019-05-05T07:46:37.472Z,11.40
2019-05-05T07:49:04.489Z,11.50
2019-05-05T07:51:33.419Z,11.70
2019-05-05T07:54:00.374Z,11.70
2019-05-05T07:56:27.157Z,11.80
2019-05-05T07:58:54.413Z,12.00
2019-05-05T08:01:21.451Z,12.40
2019-05-05T08:03:48.352Z,12.20
2019-05-05T08:06:15.295Z,12.40
2019-05-05T08:08:44.127Z,12.10
2019-05-05T08:11:11.190Z,12.10
2019-05-05T08:13:38.007Z,12.50
2019-05-05T08:16:10.699Z,12.60
2019-05-05T08:18:50.250Z,12.70
2019-05-05T08:21:17.262Z,13.10
2019-05-05T08:24:05.045Z,13.00
2019-05-05T08:26:43.957Z,12.80
2019-05-05T08:29:28.955Z,12.80
2019-05-05T08:32:05.155Z,12.40
2019-05-05T08:34:33.854Z,12.60
2019-05-05T08:37:00.694Z,12.80
2019-05-05T08:39:27.487Z,12.70
2019-05-05T08:41:54.414Z,12.70
2019-05-05T08:44:23.528Z,12.80
2019-05-05T08:46:49.964Z,12.70
2019-05-05T08:49:17.001Z,12.70
2019-05-05T08:51:44.342Z,12.80
2019-05-05T08:54:11.305Z,12.80
2019-05-05T08:56:38.255Z,12.60
2019-05-05T08:59:05.245Z,12.60
2019-05-05T09:01:34.203Z,12.40
2019-05-05T09:04:00.906Z,12.40
2019-05-05T09:06:27.802Z,12.20
2019-05-05T09:08:54.920Z,11.90
2019-05-05T09:11:23.937Z,11.70
2019-05-05T09:13:50.621Z,11.60
2019-05-05T09:16:17.603Z,11.30
2019-05-05T09:19:00.266Z,11.70
2019-05-05T09:21:27.181Z,12.50
2019-05-05T09:24:01.551Z,13.10
2019-05-05T09:26:34.415Z,13.40
2019-05-05T09:29:26.918Z,13.60
2019-05-05T09:31:54.094Z,13.30
2019-05-05T09:34:23.906Z,13.10
2019-05-05T09:36:50.818Z,12.80
2019-05-05T09:39:17.809Z,12.70
2019-05-05T09:41:44.718Z,13.00
2019-05-05T09:44:13.478Z,12.60
2019-05-05T09:46:40.350Z,12.20
2019-05-05T09:49:07.329Z,12.00
2019-05-05T09:51:34.821Z,11.90
2019-05-05T09:54:11.864Z,12.00
2019-05-05T09:56:30.924Z,11.90
2019-05-05T09:58:57.741Z,12.20
2019-05-05T10:01:24.698Z,12.60
2019-05-05T10:03:51.530Z,12.70
2019-05-05T10:06:18.457Z,13.20
2019-05-05T10:08:45.362Z,13.90
2019-05-05T10:11:12.354Z,13.40
2019-05-05T10:13:39.258Z,13.20
2019-05-05T10:16:06.291Z,13.30
2019-05-05T10:18:35.543Z,13.40
2019-05-05T10:21:01.915Z,13.50
2019-05-05T10:23:30.649Z,13.90
2019-05-05T10:26:04.398Z,13.90
2019-05-05T10:28:31.378Z,13.80
2019-05-05T10:30:58.283Z,13.70
2019-05-05T10:33:25.115Z,13.90
2019-05-05T10:35:54.029Z,14.00
2019-05-05T10:38:20.605Z,13.90
2019-05-05T10:40:48.408Z,13.90
2019-05-05T10:43:15.519Z,13.70
2019-05-05T10:45:44.086Z,13.70
2019-05-05T10:48:11.230Z,13.70
2019-05-05T10:50:38.226Z,14.10
2019-05-05T10:53:05.114Z,14.30
2019-05-05T10:55:34.376Z,14.20
2019-05-05T10:58:00.941Z,13.90
2019-05-05T11:00:41.281Z,13.80
2019-05-05T11:03:08.313Z,13.80
2019-05-05T11:05:35.331Z,13.90
2019-05-05T11:08:04.340Z,14.00
2019-05-05T11:10:33.963Z,14.40
2019-05-05T11:13:01.497Z,14.70
2019-05-05T11:15:28.768Z,14.70
2019-05-05T11:17:55.956Z,14.60
2019-05-05T11:20:24.706Z,14.90
2019-05-05T11:22:51.687Z,14.80
2019-05-05T11:25:18.574Z,14.70
2019-05-05T11:27:45.579Z,14.80
2019-05-05T11:30:17.748Z,14.50
2019-05-05T11:33:04.017Z,14.50
2019-05-05T11:35:59.430Z,14.60
2019-05-05T11:38:26.426Z,14.80
2019-05-05T11:40:54.638Z,15.00
2019-05-05T11:43:21.771Z,14.90
2019-05-05T11:45:48.751Z,15.20
2019-05-05T11:48:15.606Z,15.10
2019-05-05T11:50:43.620Z,15.50
2019-05-05T11:53:10.733Z,15.80
2019-05-05T11:55:37.678Z,16.00
2019-05-05T11:58:04.482Z,15.30
2019-05-05T12:00:31.478Z,14.60
2019-05-05T12:02:58.335Z,14.00
2019-05-05T12:05:25.344Z,13.70
2019-05-05T12:07:54.033Z,14.00
2019-05-05T12:10:47.047Z,14.70
2019-05-05T12:13:14.726Z,15.00
2019-05-05T12:15:44.609Z,15.40
2019-05-05T12:18:11.553Z,15.70
2019-05-05T12:20:39.386Z,16.00
2019-05-05T12:23:06.577Z,16.10
2019-05-05T12:25:43.691Z,15.50
2019-05-05T12:28:28.850Z,15.10
2019-05-05T12:30:57.922Z,15.50
2019-05-05T12:33:24.910Z,16.10
2019-05-05T12:35:53.845Z,16.30
2019-05-05T12:38:20.627Z,16.20
2019-05-05T12:40:47.530Z,16.10
2019-05-05T12:43:14.574Z,16.40
2019-05-05T12:45:43.927Z,16.40
2019-05-05T12:48:15.910Z,16.10
2019-05-05T12:50:44.298Z,15.60
2019-05-05T12:53:11.469Z,15.30
2019-05-05T12:55:41.608Z,14.80
2019-05-05T12:58:07.110Z,14.60
2019-05-05T13:00:35.633Z,14.50
2019-05-05T13:03:04.358Z,14.20
2019-05-05T13:05:31.281Z,14.00
2019-05-05T13:07:58.084Z,13.80
2019-05-05T13:10:25.170Z,13.60
2019-05-05T13:12:54.180Z,13.40
2019-05-05T13:15:20.998Z,13.30
2019-05-05T13:17:47.949Z,13.40
2019-05-05T13:20:30.522Z,13.60
2019-05-05T13:23:14.818Z,13.70
2019-05-05T13:25:56.002Z,13.70
2019-05-05T13:28:16.801Z,13.30
2019-05-05T13:30:43.818Z,13.00
2019-05-05T13:33:10.602Z,12.60
2019-05-05T13:35:37.394Z,12.20
2019-05-05T13:38:04.308Z,12.10
2019-05-05T13:40:31.291Z,12.00
2019-05-05T13:42:58.070Z,12.20
2019-05-05T13:45:47.048Z,12.80
2019-05-05T13:48:14.109Z,13.10
2019-05-05T13:50:43.801Z,13.40
2019-05-05T13:53:10.846Z,13.10
2019-05-05T13:55:37.752Z,13.10
2019-05-05T13:58:04.886Z,12.90
2019-05-05T14:00:33.687Z,12.60
2019-05-05T14:03:00.454Z,12.30
2019-05-05T14:05:27.262Z,12.10
2019-05-05T14:07:54.101Z,11.90
2019-05-05T14:10:21.018Z,11.60
2019-05-05T14:12:47.838Z,11.60
2019-05-05T14:15:15.691Z,11.60
2019-05-05T14:17:43.977Z,11.70
2019-05-05T14:20:12.138Z,11.90
2019-05-05T14:22:39.314Z,12.10
2019-05-05T14:25:10.847Z,12.40
2019-05-05T14:27:37.722Z,12.30
2019-05-05T14:30:29.950Z,12.00
2019-05-05T14:32:57.554Z,11.80
2019-05-05T14:35:36.702Z,11.50
2019-05-05T14:38:07.061Z,11.20
2019-05-05T14:40:34.071Z,11.00
2019-05-05T14:43:00.962Z,11.10
2019-05-05T14:45:28.121Z,11.10
2019-05-05T14:47:54.924Z,11.00
2019-05-05T14:50:24.018Z,11.10
2019-05-05T14:52:50.825Z,11.00
2019-05-05T14:55:17.843Z,10.90
2019-05-05T14:57:44.771Z,11.00
2019-05-05T15:00:15.085Z,10.90
2019-05-05T15:02:43.771Z,10.80
2019-05-05T15:05:29.441Z,10.70
2019-05-05T15:08:06.062Z,10.60
2019-05-05T15:10:54.574Z,10.40
2019-05-05T15:13:21.713Z,10.30
2019-05-05T15:15:48.641Z,10.10
2019-05-05T15:18:15.710Z,10.00
2019-05-05T15:20:44.013Z,9.90
2019-05-05T15:23:11.086Z,9.70
2019-05-05T15:25:37.964Z,9.70
2019-05-05T15:28:04.983Z,9.70
2019-05-05T15:30:33.529Z,9.50
2019-05-05T15:33:00.601Z,9.20
2019-05-05T15:35:27.504Z,9.10
2019-05-05T15:37:54.495Z,9.20
2019-05-05T15:40:21.631Z,9.30
2019-05-05T15:42:48.426Z,9.30
2019-05-05T15:45:15.886Z,9.20
2019-05-05T15:47:43.540Z,9.20
2019-05-05T15:50:11.300Z,9.20
2019-05-05T15:52:38.090Z,9.20
2019-05-05T15:55:05.882Z,9.30
2019-05-05T15:57:33.608Z,9.20
2019-05-05T16:00:00.830Z,9.30
2019-05-05T16:02:27.858Z,9.30
2019-05-05T16:04:54.747Z,9.20
2019-05-05T16:07:21.555Z,9.10
2019-05-05T16:09:48.354Z,9.10
2019-05-05T16:12:39.434Z,9.10
2019-05-05T16:15:18.456Z,8.90
2019-05-05T16:18:08.823Z,8.90
2019-05-05T16:20:39.394Z,8.90
2019-05-05T16:23:17.781Z,8.90
2019-05-05T16:25:46.571Z,8.90
2019-05-05T16:28:14.558Z,9.00
2019-05-05T16:30:41.586Z,9.00
2019-05-05T16:33:08.373Z,9.00
2019-05-05T16:35:35.178Z,9.00
2019-05-05T16:38:04.179Z,9.00
2019-05-05T16:40:30.794Z,9.00
2019-05-05T16:42:57.589Z,9.10
2019-05-05T16:45:24.765Z,9.10
2019-05-05T16:47:51.734Z,9.20
2019-05-05T16:50:18.633Z,9.20
2019-05-05T16:52:54.372Z,9.20
2019-05-05T16:55:27.161Z,9.10
2019-05-05T16:57:55.112Z,9.20
2019-05-05T17:00:25.693Z,9.20
2019-05-05T17:02:51.073Z,9.20
2019-05-05T17:05:18.101Z,9.20
2019-05-05T17:07:44.989Z,9.30
2019-05-05T17:10:13.818Z,9.40
2019-05-05T17:12:40.815Z,9.50
2019-05-05T17:15:37.343Z,9.40
2019-05-05T17:18:36.007Z,9.40
2019-05-05T17:21:05.566Z,9.50
2019-05-05T17:23:34.152Z,9.40
2019-05-05T17:26:01.301Z,9.40
2019-05-05T17:28:28.199Z,9.40
2019-05-05T17:30:54.982Z,9.30
2019-05-05T17:33:24.017Z,9.20
2019-05-05T17:35:50.728Z,9.20
2019-05-05T17:38:17.513Z,9.10
2019-05-05T17:41:06.746Z,9.10
2019-05-05T17:43:54.187Z,9.00
2019-05-05T17:46:28.121Z,9.00
2019-05-05T17:49:04.681Z,8.90
2019-05-05T17:51:37.983Z,8.90
2019-05-05T17:54:24.084Z,8.90
2019-05-05T17:56:53.020Z,8.70
2019-05-05T17:59:19.754Z,8.70
2019-05-05T18:01:46.637Z,8.70
2019-05-05T18:04:13.647Z,8.60
2019-05-05T18:07:04.116Z,8.60
2019-05-05T18:09:50.690Z,8.50
2019-05-05T18:12:40.534Z,8.40
2019-05-05T18:15:09.885Z,8.40
2019-05-05T18:17:36.707Z,8.30
2019-05-05T18:20:04.418Z,8.20
2019-05-05T18:22:31.538Z,8.10
2019-05-05T18:24:58.313Z,8.10
2019-05-05T18:27:25.252Z,8.00
2019-05-05T18:29:54.211Z,7.90
2019-05-05T18:32:20.838Z,7.80
2019-05-05T18:34:47.669Z,7.80
2019-05-05T18:37:14.605Z,7.70
2019-05-05T18:39:41.470Z,7.60
2019-05-05T18:42:20.593Z,7.50
2019-05-05T18:44:50.157Z,7.30
2019-05-05T18:47:18.859Z,7.20
2019-05-05T18:49:45.967Z,7.10
2019-05-05T18:52:13.851Z,6.90
2019-05-05T18:54:41.062Z,6.80
2019-05-05T18:57:08.747Z,6.70
2019-05-05T18:59:35.742Z,6.80
2019-05-05T19:02:10.400Z,6.70
2019-05-05T19:04:58.297Z,6.70
2019-05-05T19:07:54.430Z,6.60
2019-05-05T19:10:09.542Z,6.50
2019-05-05T19:12:36.361Z,6.50
2019-05-05T19:15:04.303Z,6.40
2019-05-05T19:17:31.361Z,6.20
2019-05-05T19:20:04.149Z,6.20
2019-05-05T19:22:30.612Z,6.10
2019-05-05T19:25:00.694Z,6.00
2019-05-05T19:27:27.723Z,6.00
2019-05-05T19:29:54.561Z,5.90
2019-05-05T19:32:21.453Z,5.70
2019-05-05T19:34:48.296Z,5.70
2019-05-05T19:37:15.196Z,5.60
2019-05-05T19:39:41.981Z,5.50
2019-05-05T19:42:08.816Z,5.40
2019-05-05T19:44:35.603Z,5.30
2019-05-05T19:47:21.473Z,5.20
2019-05-05T19:49:54.470Z,5.20
2019-05-05T19:52:21.269Z,5.10
2019-05-05T19:54:48.106Z,5.00
2019-05-05T19:57:14.881Z,5.00
2019-05-05T19:59:41.677Z,5.00
2019-05-05T20:02:08.598Z,4.90
2019-05-05T20:04:35.400Z,5.00
2019-05-05T20:07:04.258Z,5.00
2019-05-05T20:09:34.164Z,5.00
2019-05-05T20:12:03.877Z,5.10
2019-05-05T20:14:30.446Z,5.10
2019-05-05T20:17:12.050Z,5.10
2019-05-05T20:19:44.110Z,5.20
2019-05-05T20:22:11.434Z,5.20
2019-05-05T20:24:38.474Z,5.30
2019-05-05T20:27:05.270Z,5.20
2019-05-05T20:29:35.023Z,5.20
2019-05-05T20:32:01.021Z,5.30
2019-05-05T20:34:56.409Z,5.40
2019-05-05T20:37:27.561Z,5.40
2019-05-05T20:39:55.154Z,5.40
2019-05-05T20:42:21.955Z,5.40
2019-05-05T20:44:48.894Z,5.50
2019-05-05T20:47:15.765Z,5.70
2019-05-05T20:49:44.408Z,5.70
2019-05-05T20:52:11.438Z,5.90
2019-05-05T20:54:38.223Z,6.00
2019-05-05T20:57:05.277Z,6.20
2019-05-05T20:59:34.177Z,6.20
2019-05-05T21:02:01.002Z,6.30
2019-05-05T21:04:27.907Z,6.30
2019-05-05T21:06:55.006Z,6.30
2019-05-05T21:09:21.910Z,6.30
2019-05-05T21:11:48.867Z,6.30
2019-05-05T21:14:15.730Z,6.30
2019-05-05T21:16:44.060Z,6.30
2019-05-05T21:19:11.133Z,6.30
2019-05-05T21:21:39.933Z,6.20
2019-05-05T21:24:06.830Z,6.30
2019-05-05T21:27:08.098Z,6.30
2019-05-05T21:29:41.355Z,6.20
2019-05-05T21:32:04.490Z,6.30
2019-05-05T21:34:31.534Z,6.40
2019-05-05T21:36:58.314Z,6.40
2019-05-05T21:39:25.090Z,6.50
2019-05-05T21:41:52.014Z,6.60
2019-05-05T21:44:18.846Z,6.60
2019-05-05T21:46:45.686Z,6.80
2019-05-05T21:49:13.616Z,6.70
2019-05-05T21:52:00.334Z,6.80
2019-05-05T21:54:43.908Z,6.70
2019-05-05T21:57:26.006Z,6.70
2019-05-05T21:59:57.872Z,6.70
2019-05-05T22:02:23.463Z,6.70
2019-05-05T22:04:50.572Z,6.70
2019-05-05T22:07:17.485Z,6.70
2019-05-05T22:09:44.273Z,6.70
2019-05-05T22:12:13.416Z,6.70
2019-05-05T22:14:40.081Z,6.60
2019-05-05T22:17:06.877Z,6.60
2019-05-05T22:19:36.412Z,6.50
2019-05-05T22:22:05.863Z,6.40
2019-05-05T22:24:33.359Z,6.40
2019-05-05T22:27:01.453Z,6.40
2019-05-05T22:29:28.254Z,6.30
2019-05-05T22:31:55.168Z,6.30
2019-05-05T22:34:23.912Z,6.20
2019-05-05T22:36:50.766Z,6.30
2019-05-05T22:39:17.548Z,6.20
2019-05-05T22:41:44.749Z,6.10
2019-05-05T22:44:13.758Z,6.00
2019-05-05T22:47:00.172Z,6.00
2019-05-05T22:49:27.107Z,5.90
2019-05-05T22:51:54.231Z,5.80
2019-05-05T22:54:21.306Z,5.80
2019-05-05T22:56:48.136Z,5.80
2019-05-05T22:59:15.018Z,5.70
2019-05-05T23:01:42.009Z,5.60
2019-05-05T23:04:18.333Z,5.60
2019-05-05T23:06:47.711Z,5.60
2019-05-05T23:09:14.838Z,5.70
2019-05-05T23:11:43.914Z,5.60
2019-05-05T23:14:28.489Z,5.50
2019-05-05T23:17:01.566Z,5.50
2019-05-05T23:19:33.719Z,5.60
2019-05-05T23:22:09.625Z,5.60
2019-05-05T23:24:45.379Z,5.70
2019-05-05T23:27:31.853Z,5.70
2019-05-05T23:29:58.659Z,5.60
2019-05-05T23:32:25.425Z,5.50
2019-05-05T23:34:52.255Z,5.40
2019-05-05T23:37:19.032Z,5.40
2019-05-05T23:39:45.818Z,5.40
2019-05-05T23:42:14.606Z,5.40
2019-05-05T23:44:41.448Z,5.40
2019-05-05T23:47:08.239Z,5.40
2019-05-05T23:49:35.087Z,5.30
2019-05-05T23:52:04.298Z,5.20
2019-05-05T23:54:30.593Z,5.20
2019-05-05T23:56:57.422Z,5.20
2019-05-05T23:59:24.311Z,5.20
